sensor_id;sensor_type;location;lat;lon;timestamp;temperature;humidity
72591;SHT31;60625;51.212;5.952;2023-11-21T00:03:21;7.40;89.78
72591;SHT31;60625;51.212;5.952;2023-11-21T00:08:23;7.41;89.72
72591;SHT31;60625;51.212;5.952;2023-11-21T00:13:24;7.43;89.74
72591;SHT31;60625;51.212;5.952;2023-11-21T00:18:24;7.44;89.77
72591;SHT31;60625;51.212;5.952;2023-11-21T00:23:25;7.49;89.88
72591;SHT31;60625;51.212;5.952;2023-11-21T00:28:26;7.50;89.81
72591;SHT31;60625;51.212;5.952;2023-11-21T00:33:27;7.52;89.86
72591;SHT31;60625;51.212;5.952;2023-11-21T00:38:27;7.55;89.88
72591;SHT31;60625;51.212;5.952;2023-11-21T00:43:28;7.57;89.88
72591;SHT31;60625;51.212;5.952;2023-11-21T00:48:29;7.59;89.89
72591;SHT31;60625;51.212;5.952;2023-11-21T00:53:29;7.60;89.87
72591;SHT31;60625;51.212;5.952;2023-11-21T00:58:30;7.57;89.92
72591;SHT31;60625;51.212;5.952;2023-11-21T01:03:31;7.59;90.06
72591;SHT31;60625;51.212;5.952;2023-11-21T01:08:31;7.62;90.10
72591;SHT31;60625;51.212;5.952;2023-11-21T01:13:32;7.64;90.18
72591;SHT31;60625;51.212;5.952;2023-11-21T01:18:32;7.68;90.25
72591;SHT31;60625;51.212;5.952;2023-11-21T01:23:37;7.73;90.34
72591;SHT31;60625;51.212;5.952;2023-11-21T01:28:37;7.75;90.33
72591;SHT31;60625;51.212;5.952;2023-11-21T01:33:37;7.76;90.36
72591;SHT31;60625;51.212;5.952;2023-11-21T01:38:38;7.79;90.41
72591;SHT31;60625;51.212;5.952;2023-11-21T01:43:39;7.82;90.46
72591;SHT31;60625;51.212;5.952;2023-11-21T01:48:39;7.84;90.52
72591;SHT31;60625;51.212;5.952;2023-11-21T01:53:40;7.87;90.51
72591;SHT31;60625;51.212;5.952;2023-11-21T01:58:41;7.89;90.52
72591;SHT31;60625;51.212;5.952;2023-11-21T02:03:43;7.91;90.58
72591;SHT31;60625;51.212;5.952;2023-11-21T02:08:44;7.94;90.60
72591;SHT31;60625;51.212;5.952;2023-11-21T02:13:45;7.96;90.59
72591;SHT31;60625;51.212;5.952;2023-11-21T02:18:47;7.99;90.60
72591;SHT31;60625;51.212;5.952;2023-11-21T02:23:49;8.01;90.60
72591;SHT31;60625;51.212;5.952;2023-11-21T02:28:49;8.03;90.60
72591;SHT31;60625;51.212;5.952;2023-11-21T02:33:50;8.06;90.60
72591;SHT31;60625;51.212;5.952;2023-11-21T02:38:50;8.08;90.60
72591;SHT31;60625;51.212;5.952;2023-11-21T02:43:50;8.09;90.60
72591;SHT31;60625;51.212;5.952;2023-11-21T02:48:51;8.09;90.60
72591;SHT31;60625;51.212;5.952;2023-11-21T02:53:56;8.09;90.61
72591;SHT31;60625;51.212;5.952;2023-11-21T02:58:59;8.11;90.61
72591;SHT31;60625;51.212;5.952;2023-11-21T03:04:00;8.10;90.60
72591;SHT31;60625;51.212;5.952;2023-11-21T03:09:01;8.11;90.60
72591;SHT31;60625;51.212;5.952;2023-11-21T03:14:02;8.12;90.60
72591;SHT31;60625;51.212;5.952;2023-11-21T03:19:03;8.12;90.61
72591;SHT31;60625;51.212;5.952;2023-11-21T03:24:04;8.14;90.61
72591;SHT31;60625;51.212;5.952;2023-11-21T03:29:06;8.15;90.63
72591;SHT31;60625;51.212;5.952;2023-11-21T03:34:11;8.18;90.64
72591;SHT31;60625;51.212;5.952;2023-11-21T03:39:20;8.20;90.61
72591;SHT31;60625;51.212;5.952;2023-11-21T03:44:21;8.22;90.61
72591;SHT31;60625;51.212;5.952;2023-11-21T03:49:22;8.24;90.62
72591;SHT31;60625;51.212;5.952;2023-11-21T03:54:23;8.24;90.60
72591;SHT31;60625;51.212;5.952;2023-11-21T03:59:23;8.24;90.60
72591;SHT31;60625;51.212;5.952;2023-11-21T04:04:24;8.24;90.60
72591;SHT31;60625;51.212;5.952;2023-11-21T04:09:25;8.24;90.54
72591;SHT31;60625;51.212;5.952;2023-11-21T04:14:25;8.21;90.50
72591;SHT31;60625;51.212;5.952;2023-11-21T04:19:26;8.21;90.58
72591;SHT31;60625;51.212;5.952;2023-11-21T04:24:27;8.23;90.60
72591;SHT31;60625;51.212;5.952;2023-11-21T04:29:27;8.23;90.67
72591;SHT31;60625;51.212;5.952;2023-11-21T04:34:28;8.24;90.78
72591;SHT31;60625;51.212;5.952;2023-11-21T04:39:31;8.24;90.85
72591;SHT31;60625;51.212;5.952;2023-11-21T04:44:34;8.23;90.90
72591;SHT31;60625;51.212;5.952;2023-11-21T04:49:34;8.21;90.96
72591;SHT31;60625;51.212;5.952;2023-11-21T04:54:35;8.20;91.00
72591;SHT31;60625;51.212;5.952;2023-11-21T04:59:36;8.19;91.09
72591;SHT31;60625;51.212;5.952;2023-11-21T05:04:36;8.19;91.18
72591;SHT31;60625;51.212;5.952;2023-11-21T05:09:40;8.20;91.23
72591;SHT31;60625;51.212;5.952;2023-11-21T05:14:46;8.20;91.24
72591;SHT31;60625;51.212;5.952;2023-11-21T05:19:46;8.19;91.30
72591;SHT31;60625;51.212;5.952;2023-11-21T05:24:48;8.20;91.33
72591;SHT31;60625;51.212;5.952;2023-11-21T05:29:49;8.21;91.39
72591;SHT31;60625;51.212;5.952;2023-11-21T05:34:51;8.22;91.45
72591;SHT31;60625;51.212;5.952;2023-11-21T05:39:53;8.25;91.49
72591;SHT31;60625;51.212;5.952;2023-11-21T05:44:56;8.27;91.51
72591;SHT31;60625;51.212;5.952;2023-11-21T05:49:59;8.29;91.50
72591;SHT31;60625;51.212;5.952;2023-11-21T05:55:00;8.30;91.50
72591;SHT31;60625;51.212;5.952;2023-11-21T06:00:00;8.31;91.50
72591;SHT31;60625;51.212;5.952;2023-11-21T06:05:11;8.32;91.52
72591;SHT31;60625;51.212;5.952;2023-11-21T06:10:11;8.32;91.54
72591;SHT31;60625;51.212;5.952;2023-11-21T06:15:17;8.32;91.60
72591;SHT31;60625;51.212;5.952;2023-11-21T06:20:20;8.34;91.57
72591;SHT31;60625;51.212;5.952;2023-11-21T06:25:23;8.36;91.63
72591;SHT31;60625;51.212;5.952;2023-11-21T06:30:23;8.37;91.60
72591;SHT31;60625;51.212;5.952;2023-11-21T06:35:24;8.39;91.61
72591;SHT31;60625;51.212;5.952;2023-11-21T06:40:24;8.38;91.61
72591;SHT31;60625;51.212;5.952;2023-11-21T06:45:25;8.39;91.60
72591;SHT31;60625;51.212;5.952;2023-11-21T06:50:25;8.40;91.60
72591;SHT31;60625;51.212;5.952;2023-11-21T06:55:26;8.42;91.60
72591;SHT31;60625;51.212;5.952;2023-11-21T07:00:26;8.43;91.60
72591;SHT31;60625;51.212;5.952;2023-11-21T07:05:29;8.44;91.60
72591;SHT31;60625;51.212;5.952;2023-11-21T07:10:30;8.45;91.60
72591;SHT31;60625;51.212;5.952;2023-11-21T07:15:31;8.47;91.60
72591;SHT31;60625;51.212;5.952;2023-11-21T07:20:33;8.50;91.61
72591;SHT31;60625;51.212;5.952;2023-11-21T07:25:34;8.52;91.60
72591;SHT31;60625;51.212;5.952;2023-11-21T07:30:37;8.54;91.60
72591;SHT31;60625;51.212;5.952;2023-11-21T07:35:38;8.58;91.60
72591;SHT31;60625;51.212;5.952;2023-11-21T07:40:38;8.61;91.60
72591;SHT31;60625;51.212;5.952;2023-11-21T07:45:39;8.65;91.60
72591;SHT31;60625;51.212;5.952;2023-11-21T07:50:39;8.67;91.60
72591;SHT31;60625;51.212;5.952;2023-11-21T07:55:40;8.70;91.61
72591;SHT31;60625;51.212;5.952;2023-11-21T08:00:40;8.74;91.64
72591;SHT31;60625;51.212;5.952;2023-11-21T08:05:41;8.78;91.69
72591;SHT31;60625;51.212;5.952;2023-11-21T08:10:42;8.79;91.61
72591;SHT31;60625;51.212;5.952;2023-11-21T08:15:42;8.83;91.64
72591;SHT31;60625;51.212;5.952;2023-11-21T08:20:46;8.86;91.63
72591;SHT31;60625;51.212;5.952;2023-11-21T08:25:49;8.92;91.70
72591;SHT31;60625;51.212;5.952;2023-11-21T08:30:49;8.96;91.62
72591;SHT31;60625;51.212;5.952;2023-11-21T08:35:50;8.99;91.60
72591;SHT31;60625;51.212;5.952;2023-11-21T08:40:51;9.01;91.61
72591;SHT31;60625;51.212;5.952;2023-11-21T08:45:52;9.03;91.58
72591;SHT31;60625;51.212;5.952;2023-11-21T08:50:52;9.04;91.60
72591;SHT31;60625;51.212;5.952;2023-11-21T08:55:53;9.05;91.64
72591;SHT31;60625;51.212;5.952;2023-11-21T09:00:55;9.08;91.70
72591;SHT31;60625;51.212;5.952;2023-11-21T09:05:55;9.11;91.70
72591;SHT31;60625;51.212;5.952;2023-11-21T09:10:56;9.13;91.70
72591;SHT31;60625;51.212;5.952;2023-11-21T09:15:57;9.15;91.75
72591;SHT31;60625;51.212;5.952;2023-11-21T09:20:57;9.16;91.82
72591;SHT31;60625;51.212;5.952;2023-11-21T09:26:02;9.17;91.89
72591;SHT31;60625;51.212;5.952;2023-11-21T09:31:29;9.22;91.94
72591;SHT31;60625;51.212;5.952;2023-11-21T09:36:31;9.27;91.93
72591;SHT31;60625;51.212;5.952;2023-11-21T09:46:51;9.40;91.91
72591;SHT31;60625;51.212;5.952;2023-11-21T09:51:54;9.45;91.81
72591;SHT31;60625;51.212;5.952;2023-11-21T09:56:59;9.48;91.73
72591;SHT31;60625;51.212;5.952;2023-11-21T10:02:03;9.49;91.65
72591;SHT31;60625;51.212;5.952;2023-11-21T10:07:04;9.54;91.61
72591;SHT31;60625;51.212;5.952;2023-11-21T10:12:09;9.59;91.60
72591;SHT31;60625;51.212;5.952;2023-11-21T10:17:12;9.67;91.58
72591;SHT31;60625;51.212;5.952;2023-11-21T10:22:21;9.74;91.54
72591;SHT31;60625;51.212;5.952;2023-11-21T10:27:22;9.81;91.44
72591;SHT31;60625;51.212;5.952;2023-11-21T10:32:27;9.87;91.40
72591;SHT31;60625;51.212;5.952;2023-11-21T10:37:30;9.97;91.43
72591;SHT31;60625;51.212;5.952;2023-11-21T10:42:32;10.05;91.33
72591;SHT31;60625;51.212;5.952;2023-11-21T10:47:33;10.08;91.20
72591;SHT31;60625;51.212;5.952;2023-11-21T10:52:39;10.14;91.13
72591;SHT31;60625;51.212;5.952;2023-11-21T10:57:44;10.26;91.18
72591;SHT31;60625;51.212;5.952;2023-11-21T11:02:50;10.38;91.07
72591;SHT31;60625;51.212;5.952;2023-11-21T11:08:04;10.44;90.86
72591;SHT31;60625;51.212;5.952;2023-11-21T11:13:06;10.45;90.75
72591;SHT31;60625;51.212;5.952;2023-11-21T11:18:10;10.46;90.69
72591;SHT31;60625;51.212;5.952;2023-11-21T11:28:44;10.42;90.57
72591;SHT31;60625;51.212;5.952;2023-11-21T11:34:45;10.44;90.63
72591;SHT31;60625;51.212;5.952;2023-11-21T11:39:40;10.42;90.59
72591;SHT31;60625;51.212;5.952;2023-11-21T11:50:03;10.44;90.70
72591;SHT31;60625;51.212;5.952;2023-11-21T11:55:14;10.45;90.77
72591;SHT31;60625;51.212;5.952;2023-11-21T12:00:21;10.47;90.82
72591;SHT31;60625;51.212;5.952;2023-11-21T12:05:31;10.50;90.86
72591;SHT31;60625;51.212;5.952;2023-11-21T12:10:36;10.52;90.85
72591;SHT31;60625;51.212;5.952;2023-11-21T12:15:43;10.52;90.79
72591;SHT31;60625;51.212;5.952;2023-11-21T12:20:51;10.55;90.92
72591;SHT31;60625;51.212;5.952;2023-11-21T12:25:52;10.61;90.97
72591;SHT31;60625;51.212;5.952;2023-11-21T12:30:54;10.67;90.92
72591;SHT31;60625;51.212;5.952;2023-11-21T12:35:57;10.73;90.86
72591;SHT31;60625;51.212;5.952;2023-11-21T12:40:58;10.76;90.78
72591;SHT31;60625;51.212;5.952;2023-11-21T12:46:06;10.76;90.71
72591;SHT31;60625;51.212;5.952;2023-11-21T12:51:11;10.71;90.53
72591;SHT31;60625;51.212;5.952;2023-11-21T12:56:14;10.66;90.49
72591;SHT31;60625;51.212;5.952;2023-11-21T13:01:17;10.65;90.49
72591;SHT31;60625;51.212;5.952;2023-11-21T13:06:19;10.69;90.46
72591;SHT31;60625;51.212;5.952;2023-11-21T13:11:21;10.72;90.32
72591;SHT31;60625;51.212;5.952;2023-11-21T13:16:23;10.73;90.29
72591;SHT31;60625;51.212;5.952;2023-11-21T13:21:24;10.73;90.27
72591;SHT31;60625;51.212;5.952;2023-11-21T13:26:24;10.70;90.15
72591;SHT31;60625;51.212;5.952;2023-11-21T13:31:26;10.69;90.18
72591;SHT31;60625;51.212;5.952;2023-11-21T13:36:29;10.67;90.22
72591;SHT31;60625;51.212;5.952;2023-11-21T13:41:33;10.68;90.28
72591;SHT31;60625;51.212;5.952;2023-11-21T13:46:34;10.66;90.21
72591;SHT31;60625;51.212;5.952;2023-11-21T13:51:37;10.62;90.20
72591;SHT31;60625;51.212;5.952;2023-11-21T13:56:43;10.56;90.10
72591;SHT31;60625;51.212;5.952;2023-11-21T14:01:47;10.54;90.15
72591;SHT31;60625;51.212;5.952;2023-11-21T14:06:53;10.53;90.14
72591;SHT31;60625;51.212;5.952;2023-11-21T14:11:55;10.54;90.23
72591;SHT31;60625;51.212;5.952;2023-11-21T14:16:57;10.55;90.32
72591;SHT31;60625;51.212;5.952;2023-11-21T14:21:59;10.54;90.39
72591;SHT31;60625;51.212;5.952;2023-11-21T14:27:00;10.53;90.39
72591;SHT31;60625;51.212;5.952;2023-11-21T14:32:03;10.54;90.39
72591;SHT31;60625;51.212;5.952;2023-11-21T14:37:05;10.56;90.39
72591;SHT31;60625;51.212;5.952;2023-11-21T14:42:07;10.55;90.38
72591;SHT31;60625;51.212;5.952;2023-11-21T14:47:08;10.52;90.31
72591;SHT31;60625;51.212;5.952;2023-11-21T14:52:15;10.48;90.34
72591;SHT31;60625;51.212;5.952;2023-11-21T14:57:34;10.44;90.31
72591;SHT31;60625;51.212;5.952;2023-11-21T15:02:36;10.43;90.34
72591;SHT31;60625;51.212;5.952;2023-11-21T15:07:49;10.38;90.22
72591;SHT31;60625;51.212;5.952;2023-11-21T15:12:50;10.36;90.25
72591;SHT31;60625;51.212;5.952;2023-11-21T15:17:50;10.35;90.30
72591;SHT31;60625;51.212;5.952;2023-11-21T15:22:51;10.33;90.32
72591;SHT31;60625;51.212;5.952;2023-11-21T15:27:54;10.31;90.38
72591;SHT31;60625;51.212;5.952;2023-11-21T15:32:54;10.30;90.40
72591;SHT31;60625;51.212;5.952;2023-11-21T15:37:55;10.29;90.46
72591;SHT31;60625;51.212;5.952;2023-11-21T15:42:58;10.27;90.57
72591;SHT31;60625;51.212;5.952;2023-11-21T15:47:58;10.26;90.68
72591;SHT31;60625;51.212;5.952;2023-11-21T15:53:00;10.24;90.79
72591;SHT31;60625;51.212;5.952;2023-11-21T15:58:03;10.25;90.86
72591;SHT31;60625;51.212;5.952;2023-11-21T16:03:05;10.25;90.90
72591;SHT31;60625;51.212;5.952;2023-11-21T16:08:05;10.23;90.96
72591;SHT31;60625;51.212;5.952;2023-11-21T16:13:06;10.20;90.99
72591;SHT31;60625;51.212;5.952;2023-11-21T16:18:08;10.18;90.89
72591;SHT31;60625;51.212;5.952;2023-11-21T16:23:08;10.16;90.75
72591;SHT31;60625;51.212;5.952;2023-11-21T16:28:09;10.14;90.55
72591;SHT31;60625;51.212;5.952;2023-11-21T16:33:10;10.12;90.28
72591;SHT31;60625;51.212;5.952;2023-11-21T16:38:11;10.10;90.18
72591;SHT31;60625;51.212;5.952;2023-11-21T16:43:12;10.08;90.11
72591;SHT31;60625;51.212;5.952;2023-11-21T16:48:13;10.06;90.03
72591;SHT31;60625;51.212;5.952;2023-11-21T16:53:13;10.05;90.03
72591;SHT31;60625;51.212;5.952;2023-11-21T16:58:14;10.03;90.04
72591;SHT31;60625;51.212;5.952;2023-11-21T17:03:16;10.03;90.01
72591;SHT31;60625;51.212;5.952;2023-11-21T17:08:17;10.01;90.01
72591;SHT31;60625;51.212;5.952;2023-11-21T17:13:19;9.98;90.13
72591;SHT31;60625;51.212;5.952;2023-11-21T17:18:20;9.94;90.20
72591;SHT31;60625;51.212;5.952;2023-11-21T17:23:20;9.90;90.13
72591;SHT31;60625;51.212;5.952;2023-11-21T17:28:21;9.86;90.18
72591;SHT31;60625;51.212;5.952;2023-11-21T17:33:22;9.80;90.18
72591;SHT31;60625;51.212;5.952;2023-11-21T17:38:22;9.75;90.04
72591;SHT31;60625;51.212;5.952;2023-11-21T17:43:23;9.68;89.83
72591;SHT31;60625;51.212;5.952;2023-11-21T17:48:23;9.62;89.43
72591;SHT31;60625;51.212;5.952;2023-11-21T17:53:26;9.54;89.10
72591;SHT31;60625;51.212;5.952;2023-11-21T17:58:26;9.44;88.99
72591;SHT31;60625;51.212;5.952;2023-11-21T18:03:28;9.32;89.19
72591;SHT31;60625;51.212;5.952;2023-11-21T18:08:28;9.20;88.96
72591;SHT31;60625;51.212;5.952;2023-11-21T18:13:29;9.02;88.44
72591;SHT31;60625;51.212;5.952;2023-11-21T18:18:30;8.89;88.26
72591;SHT31;60625;51.212;5.952;2023-11-21T18:23:30;8.76;87.35
72591;SHT31;60625;51.212;5.952;2023-11-21T18:28:31;8.69;87.78
72591;SHT31;60625;51.212;5.952;2023-11-21T18:33:32;8.62;87.88
72591;SHT31;60625;51.212;5.952;2023-11-21T18:38:34;8.56;87.82
72591;SHT31;60625;51.212;5.952;2023-11-21T18:43:36;8.47;86.54
72591;SHT31;60625;51.212;5.952;2023-11-21T18:48:36;8.35;85.07
72591;SHT31;60625;51.212;5.952;2023-11-21T18:53:37;8.23;84.57
72591;SHT31;60625;51.212;5.952;2023-11-21T18:58:39;8.16;84.72
72591;SHT31;60625;51.212;5.952;2023-11-21T19:03:43;8.09;84.88
72591;SHT31;60625;51.212;5.952;2023-11-21T19:08:44;8.03;84.92
72591;SHT31;60625;51.212;5.952;2023-11-21T19:13:44;7.95;85.04
72591;SHT31;60625;51.212;5.952;2023-11-21T19:18:45;7.90;85.00
72591;SHT31;60625;51.212;5.952;2023-11-21T19:23:46;7.82;84.99
72591;SHT31;60625;51.212;5.952;2023-11-21T19:28:47;7.73;85.05
72591;SHT31;60625;51.212;5.952;2023-11-21T19:33:48;7.64;84.97
72591;SHT31;60625;51.212;5.952;2023-11-21T19:38:49;7.56;85.07
72591;SHT31;60625;51.212;5.952;2023-11-21T19:43:51;7.48;85.23
72591;SHT31;60625;51.212;5.952;2023-11-21T19:48:51;7.40;85.44
72591;SHT31;60625;51.212;5.952;2023-11-21T19:53:53;7.33;85.64
72591;SHT31;60625;51.212;5.952;2023-11-21T19:58:54;7.28;85.74
72591;SHT31;60625;51.212;5.952;2023-11-21T20:03:55;7.22;85.83
72591;SHT31;60625;51.212;5.952;2023-11-21T20:08:56;7.15;85.92
72591;SHT31;60625;51.212;5.952;2023-11-21T20:13:58;7.10;86.10
72591;SHT31;60625;51.212;5.952;2023-11-21T20:19:03;7.06;86.12
72591;SHT31;60625;51.212;5.952;2023-11-21T20:24:03;7.02;86.12
72591;SHT31;60625;51.212;5.952;2023-11-21T20:29:06;6.98;86.22
72591;SHT31;60625;51.212;5.952;2023-11-21T20:34:06;6.94;86.31
72591;SHT31;60625;51.212;5.952;2023-11-21T20:39:07;6.89;86.38
72591;SHT31;60625;51.212;5.952;2023-11-21T20:44:08;6.83;86.45
72591;SHT31;60625;51.212;5.952;2023-11-21T20:49:09;6.77;86.50
72591;SHT31;60625;51.212;5.952;2023-11-21T20:54:10;6.72;86.50
72591;SHT31;60625;51.212;5.952;2023-11-21T20:59:11;6.68;86.59
72591;SHT31;60625;51.212;5.952;2023-11-21T21:04:12;6.64;86.67
72591;SHT31;60625;51.212;5.952;2023-11-21T21:09:13;6.61;86.68
72591;SHT31;60625;51.212;5.952;2023-11-21T21:14:14;6.58;86.84
72591;SHT31;60625;51.212;5.952;2023-11-21T21:19:15;6.62;87.04
72591;SHT31;60625;51.212;5.952;2023-11-21T21:24:16;6.66;87.08
72591;SHT31;60625;51.212;5.952;2023-11-21T21:29:16;6.70;87.11
72591;SHT31;60625;51.212;5.952;2023-11-21T21:34:18;6.73;87.23
72591;SHT31;60625;51.212;5.952;2023-11-21T21:39:18;6.77;87.30
72591;SHT31;60625;51.212;5.952;2023-11-21T21:44:19;6.81;87.30
72591;SHT31;60625;51.212;5.952;2023-11-21T21:49:20;6.85;87.30
72591;SHT31;60625;51.212;5.952;2023-11-21T21:54:20;6.88;87.27
72591;SHT31;60625;51.212;5.952;2023-11-21T21:59:22;6.91;87.30
72591;SHT31;60625;51.212;5.952;2023-11-21T22:04:23;6.94;87.35
72591;SHT31;60625;51.212;5.952;2023-11-21T22:09:24;6.97;87.36
72591;SHT31;60625;51.212;5.952;2023-11-21T22:14:25;6.99;87.33
72591;SHT31;60625;51.212;5.952;2023-11-21T22:19:25;7.01;87.32
72591;SHT31;60625;51.212;5.952;2023-11-21T22:24:26;7.02;87.32
72591;SHT31;60625;51.212;5.952;2023-11-21T22:29:28;6.99;87.38
72591;SHT31;60625;51.212;5.952;2023-11-21T22:34:29;6.95;87.29
72591;SHT31;60625;51.212;5.952;2023-11-21T22:39:29;6.89;87.27
72591;SHT31;60625;51.212;5.952;2023-11-21T22:44:30;6.85;87.21
72591;SHT31;60625;51.212;5.952;2023-11-21T22:49:30;6.77;87.21
72591;SHT31;60625;51.212;5.952;2023-11-21T22:54:31;6.71;87.29
72591;SHT31;60625;51.212;5.952;2023-11-21T22:59:32;6.62;87.26
72591;SHT31;60625;51.212;5.952;2023-11-21T23:04:32;6.51;87.29
72591;SHT31;60625;51.212;5.952;2023-11-21T23:09:33;6.41;87.35
72591;SHT31;60625;51.212;5.952;2023-11-21T23:14:35;6.37;87.43
72591;SHT31;60625;51.212;5.952;2023-11-21T23:19:37;6.33;87.40
72591;SHT31;60625;51.212;5.952;2023-11-21T23:24:38;6.32;87.39
72591;SHT31;60625;51.212;5.952;2023-11-21T23:29:41;6.32;87.34
72591;SHT31;60625;51.212;5.952;2023-11-21T23:34:44;6.32;87.32
72591;SHT31;60625;51.212;5.952;2023-11-21T23:39:45;6.31;87.24
72591;SHT31;60625;51.212;5.952;2023-11-21T23:44:46;6.30;87.29
72591;SHT31;60625;51.212;5.952;2023-11-21T23:49:46;6.26;87.25
72591;SHT31;60625;51.212;5.952;2023-11-21T23:54:47;6.16;87.25
72591;SHT31;60625;51.212;5.952;2023-11-21T23:59:48;6.07;87.31
